createdAt,value
2022-10-23T00:01:39.109Z,20.17
2022-10-23T00:04:41.834Z,21.12
2022-10-23T00:07:44.444Z,19.60
2022-10-23T00:10:47.430Z,19.20
2022-10-23T00:13:50.992Z,18.00
2022-10-23T00:16:53.679Z,18.33
2022-10-23T00:19:56.279Z,17.33
2022-10-23T00:22:59.047Z,16.83
2022-10-23T00:26:02.513Z,15.63
2022-10-23T00:29:05.445Z,15.90
2022-10-23T00:32:08.014Z,13.70
2022-10-23T00:35:13.620Z,14.20
2022-10-23T00:38:16.250Z,13.90
2022-10-23T00:41:22.896Z,12.55
2022-10-23T00:44:25.447Z,14.97
2022-10-23T00:47:28.059Z,14.63
2022-10-23T00:50:33.845Z,14.87
2022-10-23T00:53:36.453Z,13.98
2022-10-23T00:56:40.868Z,15.18
2022-10-23T00:59:43.743Z,14.27
2022-10-23T01:02:46.681Z,15.63
2022-10-23T01:06:02.491Z,16.02
2022-10-23T01:09:14.194Z,15.50
2022-10-23T01:12:44.941Z,14.70
2022-10-23T01:16:05.751Z,15.00
2022-10-23T01:19:21.691Z,14.03
2022-10-23T01:23:01.922Z,18.17
2022-10-23T01:26:34.324Z,16.30
2022-10-23T01:29:52.205Z,15.25
2022-10-23T01:32:59.801Z,19.85
2022-10-23T01:36:06.411Z,18.77
2022-10-23T01:39:12.846Z,18.70
2022-10-23T01:42:29.871Z,19.42
2022-10-23T01:45:42.881Z,22.70
2022-10-23T01:48:51.803Z,17.87
2022-10-23T01:51:58.414Z,19.50
2022-10-23T01:55:01.956Z,17.98
2022-10-23T01:58:05.139Z,18.30
2022-10-23T02:01:08.224Z,17.33
2022-10-23T02:04:13.872Z,16.90
2022-10-23T02:07:16.597Z,19.13
2022-10-23T02:10:20.214Z,20.25
2022-10-23T02:13:22.817Z,21.12
2022-10-23T02:16:43.359Z,16.67
2022-10-23T02:20:23.093Z,17.70
2022-10-23T02:23:25.626Z,19.73
2022-10-23T02:26:35.518Z,16.55
2022-10-23T02:29:41.833Z,17.50
2022-10-23T02:32:49.615Z,20.02
2022-10-23T02:35:52.651Z,21.87
2022-10-23T02:38:58.705Z,18.83
2022-10-23T02:42:05.820Z,18.90
2022-10-23T02:45:31.742Z,16.70
2022-10-23T02:48:43.704Z,20.60
2022-10-23T02:51:49.520Z,19.50
2022-10-23T02:55:23.571Z,16.83
2022-10-23T02:58:44.437Z,15.93
2022-10-23T03:01:53.757Z,14.70
2022-10-23T03:04:56.928Z,14.25
2022-10-23T03:07:59.631Z,16.30
2022-10-23T03:11:02.314Z,14.37
2022-10-23T03:14:06.111Z,14.77
2022-10-23T03:17:09.592Z,15.43
2022-10-23T03:20:12.382Z,16.17
2022-10-23T03:23:18.149Z,16.47
2022-10-23T03:26:20.858Z,19.57
2022-10-23T03:29:23.677Z,19.30
2022-10-23T03:32:26.315Z,21.62
2022-10-23T03:35:28.965Z,15.32
2022-10-23T03:38:32.194Z,16.80
2022-10-23T03:41:37.872Z,16.47
2022-10-23T03:44:40.442Z,14.65
2022-10-23T03:47:45.498Z,13.45
2022-10-23T03:50:48.160Z,12.63
2022-10-23T03:53:52.061Z,12.85
2022-10-23T03:56:57.719Z,17.97
2022-10-23T04:00:02.244Z,16.25
2022-10-23T04:03:07.808Z,15.48
2022-10-23T04:06:10.564Z,15.13
2022-10-23T04:12:23.700Z,16.40
2022-10-23T04:15:26.310Z,17.73
2022-10-23T04:18:30.083Z,20.20
2022-10-23T04:21:35.547Z,20.33
2022-10-23T04:24:38.249Z,18.80
2022-10-23T04:27:41.547Z,20.00
2022-10-23T04:30:46.121Z,18.65
2022-10-23T04:33:51.710Z,19.80
2022-10-23T04:36:54.447Z,16.98
2022-10-23T04:39:57.014Z,14.75
2022-10-23T04:42:59.638Z,14.97
2022-10-23T04:46:02.218Z,17.30
2022-10-23T04:49:04.811Z,16.10
2022-10-23T04:52:07.350Z,19.05
2022-10-23T04:55:10.255Z,16.92
2022-10-23T04:58:12.795Z,17.37
2022-10-23T05:01:15.467Z,16.27
2022-10-23T05:04:18.089Z,15.20
2022-10-23T05:10:24.144Z,19.45
2022-10-23T05:13:26.780Z,14.07
2022-10-23T05:16:41.864Z,12.73
2022-10-23T05:19:54.193Z,12.95
2022-10-23T05:22:57.691Z,13.05
2022-10-23T05:26:00.428Z,14.00
2022-10-23T05:29:03.167Z,14.63
2022-10-23T05:32:07.372Z,12.90
2022-10-23T05:35:13.255Z,13.52
2022-10-23T05:38:16.184Z,13.95
2022-10-23T05:41:18.961Z,13.43
2022-10-23T05:44:21.891Z,12.83
2022-10-23T05:47:24.502Z,12.52
2022-10-23T05:50:27.233Z,12.80
2022-10-23T05:53:29.808Z,13.32
2022-10-23T05:56:32.397Z,11.68
2022-10-23T05:59:35.364Z,13.67
2022-10-23T06:02:38.166Z,12.93
2022-10-23T06:05:40.812Z,13.10
2022-10-23T06:08:43.483Z,17.87
2022-10-23T06:11:46.244Z,20.23
2022-10-23T06:14:49.176Z,21.83
2022-10-23T06:17:51.752Z,15.50
2022-10-23T06:20:54.429Z,14.50
2022-10-23T06:23:57.086Z,15.95
2022-10-23T06:26:59.711Z,15.33
2022-10-23T06:30:02.568Z,16.03
2022-10-23T06:33:06.583Z,20.08
2022-10-23T06:36:10.847Z,16.30
2022-10-23T06:39:13.800Z,14.90
2022-10-23T06:42:16.482Z,11.43
2022-10-23T06:45:19.190Z,9.93
2022-10-23T06:48:21.779Z,13.80
2022-10-23T06:51:25.174Z,11.65
2022-10-23T06:54:27.922Z,10.13
2022-10-23T06:57:30.588Z,9.40
2022-10-23T07:00:33.274Z,8.97
2022-10-23T07:03:36.626Z,9.43
2022-10-23T07:06:39.403Z,9.68
2022-10-23T07:09:42.006Z,9.02
2022-10-23T07:12:45.632Z,9.43
2022-10-23T07:15:48.442Z,12.13
2022-10-23T07:19:04.776Z,13.65
2022-10-23T07:22:08.125Z,13.62
2022-10-23T07:25:12.364Z,12.60
2022-10-23T07:28:15.126Z,15.77
2022-10-23T07:31:18.395Z,12.27
2022-10-23T07:34:21.252Z,13.32
2022-10-23T07:37:24.021Z,14.13
2022-10-23T07:40:26.731Z,15.98
2022-10-23T07:43:29.726Z,15.05
2022-10-23T07:46:32.484Z,19.97
2022-10-23T07:49:35.235Z,17.85
2022-10-23T07:52:37.987Z,16.70
2022-10-23T07:55:40.560Z,14.87
2022-10-23T07:58:44.184Z,14.43
2022-10-23T08:01:50.550Z,16.13
2022-10-23T08:04:55.397Z,16.85
2022-10-23T08:07:58.697Z,19.00
2022-10-23T08:11:06.533Z,19.05
2022-10-23T08:14:15.810Z,19.02
2022-10-23T08:17:22.219Z,15.27
2022-10-23T08:20:26.188Z,15.75
2022-10-23T08:23:30.474Z,13.68
2022-10-23T08:26:33.760Z,11.70
2022-10-23T08:29:36.862Z,13.25
2022-10-23T08:32:39.573Z,14.20
2022-10-23T08:35:42.765Z,15.55
2022-10-23T08:38:45.666Z,13.15
2022-10-23T08:41:50.904Z,11.88
2022-10-23T08:45:23.103Z,9.60
2022-10-23T08:48:33.874Z,10.50
2022-10-23T08:51:45.365Z,10.77
2022-10-23T08:54:57.550Z,10.50
2022-10-23T08:58:07.273Z,10.00
2022-10-23T09:01:41.159Z,7.60
2022-10-23T09:04:46.780Z,8.50
2022-10-23T09:08:00.493Z,8.43
2022-10-23T09:11:19.680Z,8.77
2022-10-23T09:14:41.063Z,8.07
2022-10-23T09:17:44.909Z,8.00
2022-10-23T09:20:47.893Z,7.80
2022-10-23T09:23:50.549Z,8.40
2022-10-23T09:26:54.806Z,7.80
2022-10-23T09:29:58.547Z,8.52
2022-10-23T09:33:14.381Z,7.72
2022-10-23T09:36:21.489Z,7.77
2022-10-23T09:39:31.107Z,7.87
2022-10-23T09:42:33.882Z,7.97
2022-10-23T09:45:38.318Z,7.75
2022-10-23T09:48:42.593Z,7.93
2022-10-23T09:51:53.771Z,8.20
2022-10-23T09:54:59.547Z,8.02
2022-10-23T09:58:02.150Z,8.40
2022-10-23T10:01:05.097Z,8.00
2022-10-23T10:04:07.843Z,9.50
2022-10-23T10:07:22.906Z,10.90
2022-10-23T10:10:28.693Z,8.18
2022-10-23T10:13:34.763Z,8.88
2022-10-23T10:17:01.404Z,8.73
2022-10-23T10:20:12.575Z,8.32
2022-10-23T10:23:33.737Z,8.50
2022-10-23T10:26:52.123Z,8.77
2022-10-23T10:30:24.506Z,8.70
2022-10-23T10:33:46.188Z,9.63
2022-10-23T10:37:11.678Z,10.00
2022-10-23T10:40:26.932Z,9.63
2022-10-23T10:43:29.697Z,10.07
2022-10-23T10:46:58.757Z,10.55
2022-10-23T10:50:08.176Z,10.40
2022-10-23T10:53:31.848Z,10.75
2022-10-23T10:56:40.212Z,10.83
2022-10-23T10:59:44.853Z,10.95
2022-10-23T11:02:58.763Z,10.88
2022-10-23T11:06:03.096Z,10.50
2022-10-23T11:09:20.540Z,10.27
2022-10-23T11:12:27.123Z,9.80
2022-10-23T11:15:36.145Z,10.25
2022-10-23T11:18:41.899Z,10.70
2022-10-23T11:21:46.252Z,10.05
2022-10-23T11:25:13.789Z,10.95
2022-10-23T11:28:50.714Z,10.50
2022-10-23T11:32:14.779Z,10.48
2022-10-23T11:35:52.186Z,10.75
2022-10-23T11:38:59.349Z,10.73
2022-10-23T11:42:05.194Z,10.98
2022-10-23T11:45:31.202Z,11.27
2022-10-23T11:48:40.862Z,10.93
2022-10-23T11:51:43.519Z,11.75
2022-10-23T11:54:46.208Z,10.50
2022-10-23T11:58:07.344Z,10.77
2022-10-23T12:01:30.295Z,10.67
2022-10-23T12:04:36.200Z,11.02
2022-10-23T12:07:42.273Z,10.63
2022-10-23T12:10:47.799Z,10.93
2022-10-23T12:13:53.834Z,10.38
2022-10-23T12:17:02.927Z,10.80
2022-10-23T12:20:08.598Z,10.88
2022-10-23T12:23:11.261Z,10.40
2022-10-23T12:26:16.965Z,10.30
2022-10-23T12:29:41.129Z,10.98
2022-10-23T12:33:02.112Z,10.23
2022-10-23T12:36:17.419Z,10.45
2022-10-23T12:39:37.516Z,10.20
2022-10-23T12:42:40.291Z,9.65
2022-10-23T12:45:43.870Z,9.43
2022-10-23T12:48:51.195Z,9.23
2022-10-23T12:52:07.228Z,9.40
2022-10-23T12:55:14.587Z,9.57
2022-10-23T12:58:34.928Z,9.75
2022-10-23T13:01:40.507Z,9.25
2022-10-23T13:04:45.624Z,10.17
2022-10-23T13:07:48.720Z,9.93
2022-10-23T13:10:52.257Z,9.57
2022-10-23T13:13:55.199Z,9.68
2022-10-23T13:17:07.094Z,9.80
2022-10-23T13:20:19.241Z,9.63
2022-10-23T13:23:27.252Z,9.57
2022-10-23T13:26:45.458Z,9.10
2022-10-23T13:29:48.534Z,9.40
2022-10-23T13:32:56.367Z,8.70
2022-10-23T13:36:20.456Z,9.47
2022-10-23T13:39:30.456Z,8.68
2022-10-23T13:42:36.230Z,8.55
2022-10-23T13:45:42.531Z,8.65
2022-10-23T13:48:46.531Z,9.18
2022-10-23T13:51:54.578Z,10.17
2022-10-23T13:54:58.288Z,9.32
2022-10-23T13:58:03.931Z,3.83
2022-10-23T14:01:22.363Z,2.97
2022-10-23T14:04:28.414Z,2.62
2022-10-23T14:07:32.190Z,2.70
2022-10-23T14:10:38.412Z,2.65
2022-10-23T14:13:41.594Z,2.35
2022-10-23T14:16:44.224Z,2.60
2022-10-23T14:19:47.651Z,2.60
2022-10-23T14:22:50.488Z,2.60
2022-10-23T14:25:54.368Z,3.05
2022-10-23T14:29:02.374Z,2.30
2022-10-23T14:32:12.600Z,2.50
2022-10-23T14:35:15.289Z,2.87
2022-10-23T14:38:18.002Z,3.00
2022-10-23T14:41:20.709Z,3.37
2022-10-23T14:44:26.600Z,3.53
2022-10-23T14:47:30.230Z,3.03
2022-10-23T14:50:36.865Z,3.00
2022-10-23T14:53:39.634Z,3.20
2022-10-23T14:56:42.294Z,3.15
2022-10-23T14:59:45.447Z,3.30
2022-10-23T15:02:48.323Z,3.80
2022-10-23T15:05:54.239Z,3.20
2022-10-23T15:08:57.289Z,3.53
2022-10-23T15:12:00.306Z,3.03
2022-10-23T15:15:06.022Z,3.83
2022-10-23T15:18:09.650Z,3.80
2022-10-23T15:21:12.657Z,3.58
2022-10-23T15:24:17.245Z,4.30
2022-10-23T15:27:20.115Z,3.65
2022-10-23T15:30:26.685Z,3.62
2022-10-23T15:33:29.750Z,3.58
2022-10-23T15:36:35.653Z,3.80
2022-10-23T15:39:39.043Z,4.13
2022-10-23T15:42:42.502Z,3.75
2022-10-23T15:45:45.980Z,3.70
2022-10-23T15:48:48.932Z,3.90
2022-10-23T15:51:54.750Z,4.30
2022-10-23T15:54:57.453Z,3.80
2022-10-23T15:58:04.247Z,3.75
2022-10-23T16:01:07.330Z,3.53
2022-10-23T16:04:13.058Z,4.20
2022-10-23T16:07:15.770Z,4.10
2022-10-23T16:10:19.235Z,4.30
2022-10-23T16:13:22.779Z,4.00
2022-10-23T16:16:25.719Z,4.30
2022-10-23T16:19:28.506Z,4.53
2022-10-23T16:22:31.338Z,4.10
2022-10-23T16:25:37.901Z,4.37
2022-10-23T16:28:47.141Z,4.57
2022-10-23T16:31:53.674Z,4.45
2022-10-23T16:34:58.999Z,4.50
2022-10-23T16:38:02.463Z,4.80
2022-10-23T16:41:07.134Z,4.77
2022-10-23T16:44:11.023Z,5.22
2022-10-23T16:47:14.117Z,7.25
2022-10-23T16:50:17.126Z,8.80
2022-10-23T16:53:19.959Z,10.57
2022-10-23T16:56:25.631Z,11.13
2022-10-23T16:59:29.751Z,11.55
2022-10-23T17:02:33.961Z,12.43
2022-10-23T17:05:40.540Z,13.60
2022-10-23T17:08:44.277Z,15.70
2022-10-23T17:11:48.199Z,14.80
2022-10-23T17:14:51.245Z,16.80
2022-10-23T17:17:54.311Z,19.67
2022-10-23T17:20:57.682Z,19.20
2022-10-23T17:24:03.683Z,22.30
2022-10-23T17:27:06.901Z,23.43
2022-10-23T17:30:16.447Z,14.18
2022-10-23T17:33:20.824Z,12.40
2022-10-23T17:36:29.899Z,11.55
2022-10-23T17:39:34.964Z,13.27
2022-10-23T17:42:38.166Z,12.80
2022-10-23T17:45:45.562Z,13.73
2022-10-23T17:48:48.940Z,11.77
2022-10-23T17:51:56.902Z,13.93
2022-10-23T17:55:00.702Z,10.68
2022-10-23T17:58:04.464Z,10.10
2022-10-23T18:01:22.326Z,12.48
2022-10-23T18:04:27.166Z,11.90
2022-10-23T18:07:33.092Z,10.00
2022-10-23T18:10:37.087Z,10.90
2022-10-23T18:13:40.301Z,9.93
2022-10-23T18:16:46.215Z,11.40
2022-10-23T18:19:52.997Z,9.40
2022-10-23T18:23:00.465Z,9.40
2022-10-23T18:26:07.221Z,9.13
2022-10-23T18:29:12.298Z,9.07
2022-10-23T18:32:15.546Z,9.55
2022-10-23T18:35:19.649Z,9.68
2022-10-23T18:38:22.761Z,8.82
2022-10-23T18:41:27.335Z,8.98
2022-10-23T18:44:30.810Z,8.77
2022-10-23T18:47:34.649Z,8.73
2022-10-23T18:50:38.627Z,9.10
2022-10-23T18:53:42.357Z,9.32
2022-10-23T18:56:45.960Z,9.75
2022-10-23T18:59:51.221Z,9.70
2022-10-23T19:02:57.413Z,9.65
2022-10-23T19:06:00.735Z,10.10
2022-10-23T19:09:09.192Z,9.63
2022-10-23T19:15:20.879Z,10.30
2022-10-23T19:18:34.758Z,11.90
2022-10-23T19:21:40.431Z,10.95
2022-10-23T19:24:53.751Z,10.75
2022-10-23T19:27:58.358Z,10.32
2022-10-23T19:31:01.712Z,10.60
2022-10-23T19:34:05.064Z,11.02
2022-10-23T19:37:08.203Z,10.93
2022-10-23T19:40:12.322Z,10.18
2022-10-23T19:43:16.399Z,10.80
2022-10-23T19:46:19.853Z,11.33
2022-10-23T19:49:24.091Z,10.65
2022-10-23T19:52:27.424Z,10.73
2022-10-23T19:55:30.437Z,10.13
2022-10-23T19:58:34.474Z,10.18
2022-10-23T20:01:37.709Z,10.80
2022-10-23T20:04:40.690Z,10.60
2022-10-23T20:07:47.920Z,11.98
2022-10-23T20:10:50.910Z,10.88
2022-10-23T20:13:59.120Z,11.07
2022-10-23T20:17:02.756Z,10.27
2022-10-23T20:20:06.662Z,11.40
2022-10-23T20:23:09.706Z,10.48
2022-10-23T20:26:18.412Z,10.70
2022-10-23T20:29:22.566Z,9.98
2022-10-23T20:32:28.877Z,10.27
2022-10-23T20:35:38.614Z,9.68
2022-10-23T20:38:41.759Z,9.32
2022-10-23T20:41:45.380Z,9.15
2022-10-23T20:44:48.454Z,9.20
2022-10-23T20:47:51.318Z,9.50
2022-10-23T20:50:54.392Z,9.05
2022-10-23T20:53:57.419Z,9.07
2022-10-23T20:57:00.564Z,9.48
2022-10-23T21:00:07.311Z,8.77
2022-10-23T21:03:10.291Z,8.73
2022-10-23T21:06:15.423Z,9.20
2022-10-23T21:09:18.709Z,8.55
2022-10-23T21:12:21.373Z,8.15
2022-10-23T21:15:24.062Z,8.60
2022-10-23T21:18:45.001Z,8.47
2022-10-23T21:21:59.049Z,8.57
2022-10-23T21:25:01.900Z,8.32
2022-10-23T21:28:04.749Z,8.00
2022-10-23T21:31:13.193Z,8.18
2022-10-23T21:34:16.252Z,8.90
2022-10-23T21:37:18.909Z,9.00
2022-10-23T21:40:21.494Z,8.77
2022-10-23T21:43:27.293Z,8.80
2022-10-23T21:46:31.016Z,9.88
2022-10-23T21:49:34.483Z,9.67
2022-10-23T21:52:40.656Z,9.63
2022-10-23T21:55:43.230Z,9.00
2022-10-23T21:58:45.876Z,8.88
2022-10-23T22:01:49.372Z,8.68
2022-10-23T22:04:52.427Z,8.77
2022-10-23T22:07:55.017Z,9.43
2022-10-23T22:10:59.103Z,9.48
2022-10-23T22:14:02.313Z,9.20
2022-10-23T22:17:05.378Z,9.43
2022-10-23T22:20:08.638Z,8.70
2022-10-23T22:23:11.199Z,8.95
2022-10-23T22:26:20.393Z,8.90
2022-10-23T22:29:26.338Z,9.23
2022-10-23T22:32:30.527Z,9.25
2022-10-23T22:35:33.152Z,9.63
2022-10-23T22:38:35.687Z,9.10
2022-10-23T22:41:38.618Z,9.45
2022-10-23T22:44:41.225Z,9.35
2022-10-23T22:47:43.925Z,10.15
2022-10-23T22:50:47.148Z,8.70
2022-10-23T22:53:49.742Z,9.73
2022-10-23T22:56:52.483Z,10.10
2022-10-23T22:59:56.435Z,9.30
2022-10-23T23:02:59.645Z,9.20
2022-10-23T23:06:03.172Z,9.47
2022-10-23T23:09:05.787Z,8.07
2022-10-23T23:12:10.413Z,8.80
2022-10-23T23:15:13.040Z,8.52
2022-10-23T23:18:19.108Z,8.95
2022-10-23T23:21:22.253Z,8.90
2022-10-23T23:24:25.513Z,9.50
2022-10-23T23:27:28.169Z,9.50
2022-10-23T23:30:30.897Z,9.95
2022-10-23T23:33:33.723Z,9.38
2022-10-23T23:36:36.480Z,10.70
2022-10-23T23:39:39.073Z,10.05
2022-10-23T23:42:41.990Z,9.52
2022-10-23T23:45:44.787Z,10.32
2022-10-23T23:48:49.249Z,10.13
2022-10-23T23:51:52.552Z,10.90
2022-10-23T23:54:55.252Z,10.60
2022-10-23T23:57:57.903Z,10.57
